sensor_id;sensor_type;location;lat;lon;timestamp;temperature;humidity
18191;DHT22;47004;51.366;12.348;2023-04-06T00:01:10;3.10;99.90
18191;DHT22;47004;51.366;12.348;2023-04-06T00:03:12;3.10;99.90
18191;DHT22;47004;51.366;12.348;2023-04-06T00:05:14;3.10;99.90
18191;DHT22;47004;51.366;12.348;2023-04-06T00:07:16;3.10;99.90
18191;DHT22;47004;51.366;12.348;2023-04-06T00:09:19;3.10;99.90
18191;DHT22;47004;51.366;12.348;2023-04-06T00:11:21;3.10;99.90
18191;DHT22;47004;51.366;12.348;2023-04-06T00:13:23;3.10;99.90
18191;DHT22;47004;51.366;12.348;2023-04-06T00:15:26;3.10;99.90
18191;DHT22;47004;51.366;12.348;2023-04-06T00:17:28;3.20;99.90
18191;DHT22;47004;51.366;12.348;2023-04-06T00:19:30;3.10;99.90
18191;DHT22;47004;51.366;12.348;2023-04-06T00:21:32;3.10;99.90
18191;DHT22;47004;51.366;12.348;2023-04-06T00:23:34;3.10;99.90
18191;DHT22;47004;51.366;12.348;2023-04-06T00:25:37;3.20;99.90
18191;DHT22;47004;51.366;12.348;2023-04-06T00:27:39;3.20;99.90
18191;DHT22;47004;51.366;12.348;2023-04-06T00:29:43;3.20;99.90
18191;DHT22;47004;51.366;12.348;2023-04-06T00:31:45;3.20;99.90
18191;DHT22;47004;51.366;12.348;2023-04-06T00:33:48;3.20;99.90
18191;DHT22;47004;51.366;12.348;2023-04-06T00:35:50;3.20;99.90
18191;DHT22;47004;51.366;12.348;2023-04-06T00:37:52;3.20;99.90
18191;DHT22;47004;51.366;12.348;2023-04-06T00:39:54;3.20;99.90
18191;DHT22;47004;51.366;12.348;2023-04-06T00:41:58;3.20;99.90
18191;DHT22;47004;51.366;12.348;2023-04-06T00:44:00;3.20;99.90
18191;DHT22;47004;51.366;12.348;2023-04-06T00:46:02;3.20;99.90
18191;DHT22;47004;51.366;12.348;2023-04-06T00:48:05;3.20;99.90
18191;DHT22;47004;51.366;12.348;2023-04-06T00:50:08;3.20;99.90
18191;DHT22;47004;51.366;12.348;2023-04-06T00:52:10;3.20;99.90
18191;DHT22;47004;51.366;12.348;2023-04-06T00:54:12;3.20;99.90
18191;DHT22;47004;51.366;12.348;2023-04-06T00:56:14;3.30;99.90
18191;DHT22;47004;51.366;12.348;2023-04-06T00:58:18;3.30;99.90
18191;DHT22;47004;51.366;12.348;2023-04-06T01:00:20;3.30;99.90
18191;DHT22;47004;51.366;12.348;2023-04-06T01:02:22;3.30;99.90
18191;DHT22;47004;51.366;12.348;2023-04-06T01:04:25;3.30;99.90
18191;DHT22;47004;51.366;12.348;2023-04-06T01:06:28;3.30;99.90
18191;DHT22;47004;51.366;12.348;2023-04-06T01:08:31;3.20;99.90
18191;DHT22;47004;51.366;12.348;2023-04-06T01:10:33;3.30;99.90
18191;DHT22;47004;51.366;12.348;2023-04-06T01:12:35;3.30;99.90
18191;DHT22;47004;51.366;12.348;2023-04-06T01:14:39;3.30;99.90
18191;DHT22;47004;51.366;12.348;2023-04-06T01:16:41;3.30;99.90
18191;DHT22;47004;51.366;12.348;2023-04-06T01:18:43;3.30;99.90
18191;DHT22;47004;51.366;12.348;2023-04-06T01:20:46;3.30;99.90
18191;DHT22;47004;51.366;12.348;2023-04-06T01:22:49;3.30;99.90
18191;DHT22;47004;51.366;12.348;2023-04-06T01:24:51;3.30;99.90
18191;DHT22;47004;51.366;12.348;2023-04-06T01:26:53;3.30;99.90
18191;DHT22;47004;51.366;12.348;2023-04-06T01:28:55;3.30;99.90
18191;DHT22;47004;51.366;12.348;2023-04-06T01:30:57;3.30;99.90
18191;DHT22;47004;51.366;12.348;2023-04-06T01:32:59;3.30;99.90
18191;DHT22;47004;51.366;12.348;2023-04-06T01:35:01;3.30;99.90
18191;DHT22;47004;51.366;12.348;2023-04-06T01:37:03;3.30;99.90
18191;DHT22;47004;51.366;12.348;2023-04-06T01:39:07;3.30;99.90
18191;DHT22;47004;51.366;12.348;2023-04-06T01:41:09;3.30;99.90
18191;DHT22;47004;51.366;12.348;2023-04-06T01:43:11;3.30;99.90
18191;DHT22;47004;51.366;12.348;2023-04-06T01:45:13;3.30;99.90
18191;DHT22;47004;51.366;12.348;2023-04-06T01:47:15;3.30;99.90
18191;DHT22;47004;51.366;12.348;2023-04-06T01:49:17;3.30;99.90
18191;DHT22;47004;51.366;12.348;2023-04-06T01:51:19;3.30;99.90
18191;DHT22;47004;51.366;12.348;2023-04-06T01:53:21;3.30;99.90
18191;DHT22;47004;51.366;12.348;2023-04-06T01:55:25;3.30;99.90
18191;DHT22;47004;51.366;12.348;2023-04-06T01:57:27;3.30;99.90
18191;DHT22;47004;51.366;12.348;2023-04-06T01:59:29;3.20;99.90
18191;DHT22;47004;51.366;12.348;2023-04-06T02:01:30;3.30;99.90
18191;DHT22;47004;51.366;12.348;2023-04-06T02:03:32;3.20;99.90
18191;DHT22;47004;51.366;12.348;2023-04-06T02:05:34;3.30;99.90
18191;DHT22;47004;51.366;12.348;2023-04-06T02:07:38;3.20;99.90
18191;DHT22;47004;51.366;12.348;2023-04-06T02:09:40;3.20;99.90
18191;DHT22;47004;51.366;12.348;2023-04-06T02:11:43;3.20;99.90
18191;DHT22;47004;51.366;12.348;2023-04-06T02:13:45;3.20;99.90
18191;DHT22;47004;51.366;12.348;2023-04-06T02:15:47;3.20;99.90
18191;DHT22;47004;51.366;12.348;2023-04-06T02:17:50;3.20;99.90
18191;DHT22;47004;51.366;12.348;2023-04-06T02:19:52;3.20;99.90
18191;DHT22;47004;51.366;12.348;2023-04-06T02:21:54;3.20;99.90
18191;DHT22;47004;51.366;12.348;2023-04-06T02:23:58;3.20;99.90
18191;DHT22;47004;51.366;12.348;2023-04-06T02:26:00;3.10;99.90
18191;DHT22;47004;51.366;12.348;2023-04-06T02:28:04;3.20;99.90
18191;DHT22;47004;51.366;12.348;2023-04-06T02:30:07;3.20;99.90
18191;DHT22;47004;51.366;12.348;2023-04-06T02:32:09;3.20;99.90
18191;DHT22;47004;51.366;12.348;2023-04-06T02:34:11;3.10;99.90
18191;DHT22;47004;51.366;12.348;2023-04-06T02:36:17;3.10;99.90
18191;DHT22;47004;51.366;12.348;2023-04-06T02:38:20;3.10;99.90
18191;DHT22;47004;51.366;12.348;2023-04-06T02:40:22;3.10;99.90
18191;DHT22;47004;51.366;12.348;2023-04-06T02:42:24;3.10;99.90
18191;DHT22;47004;51.366;12.348;2023-04-06T02:44:27;3.10;99.90
18191;DHT22;47004;51.366;12.348;2023-04-06T02:46:29;3.10;99.90
18191;DHT22;47004;51.366;12.348;2023-04-06T02:48:31;3.10;99.90
18191;DHT22;47004;51.366;12.348;2023-04-06T02:50:36;3.10;99.90
18191;DHT22;47004;51.366;12.348;2023-04-06T02:52:38;3.10;99.90
18191;DHT22;47004;51.366;12.348;2023-04-06T02:54:40;3.10;99.90
18191;DHT22;47004;51.366;12.348;2023-04-06T02:56:42;3.10;99.90
18191;DHT22;47004;51.366;12.348;2023-04-06T02:58:44;3.00;99.90
18191;DHT22;47004;51.366;12.348;2023-04-06T03:00:48;3.00;99.90
18191;DHT22;47004;51.366;12.348;2023-04-06T03:02:50;3.00;99.90
18191;DHT22;47004;51.366;12.348;2023-04-06T03:04:52;3.00;99.90
18191;DHT22;47004;51.366;12.348;2023-04-06T03:06:54;3.00;99.90
18191;DHT22;47004;51.366;12.348;2023-04-06T03:08:56;3.00;99.90
18191;DHT22;47004;51.366;12.348;2023-04-06T03:10:58;3.00;99.90
18191;DHT22;47004;51.366;12.348;2023-04-06T03:13:00;3.00;99.90
18191;DHT22;47004;51.366;12.348;2023-04-06T03:15:03;3.00;99.90
18191;DHT22;47004;51.366;12.348;2023-04-06T03:17:06;2.90;99.90
18191;DHT22;47004;51.366;12.348;2023-04-06T03:19:10;2.90;99.90
18191;DHT22;47004;51.366;12.348;2023-04-06T03:21:13;2.90;99.90
18191;DHT22;47004;51.366;12.348;2023-04-06T03:23:15;2.90;99.90
18191;DHT22;47004;51.366;12.348;2023-04-06T03:25:20;2.90;99.90
18191;DHT22;47004;51.366;12.348;2023-04-06T03:27:22;2.80;99.90
18191;DHT22;47004;51.366;12.348;2023-04-06T03:29:24;2.90;99.90
18191;DHT22;47004;51.366;12.348;2023-04-06T03:31:27;2.80;99.90
18191;DHT22;47004;51.366;12.348;2023-04-06T03:33:31;2.80;99.90
18191;DHT22;47004;51.366;12.348;2023-04-06T03:35:32;2.80;99.90
18191;DHT22;47004;51.366;12.348;2023-04-06T03:37:34;2.70;99.90
18191;DHT22;47004;51.366;12.348;2023-04-06T03:39:37;2.70;99.90
18191;DHT22;47004;51.366;12.348;2023-04-06T03:41:39;2.70;99.90
18191;DHT22;47004;51.366;12.348;2023-04-06T03:43:41;2.60;99.90
18191;DHT22;47004;51.366;12.348;2023-04-06T03:45:43;2.60;99.90
18191;DHT22;47004;51.366;12.348;2023-04-06T03:47:45;2.70;99.90
18191;DHT22;47004;51.366;12.348;2023-04-06T03:49:48;2.60;99.90
18191;DHT22;47004;51.366;12.348;2023-04-06T03:51:50;2.50;99.90
18191;DHT22;47004;51.366;12.348;2023-04-06T03:53:52;2.50;99.90
18191;DHT22;47004;51.366;12.348;2023-04-06T03:55:55;2.50;99.90
18191;DHT22;47004;51.366;12.348;2023-04-06T03:57:57;2.40;99.90
18191;DHT22;47004;51.366;12.348;2023-04-06T03:59:59;2.40;99.90
18191;DHT22;47004;51.366;12.348;2023-04-06T04:02:01;2.40;99.90
18191;DHT22;47004;51.366;12.348;2023-04-06T04:04:03;2.30;99.90
18191;DHT22;47004;51.366;12.348;2023-04-06T04:06:06;2.30;99.90
18191;DHT22;47004;51.366;12.348;2023-04-06T04:08:08;2.30;99.90
18191;DHT22;47004;51.366;12.348;2023-04-06T04:10:11;2.30;99.90
18191;DHT22;47004;51.366;12.348;2023-04-06T04:12:13;2.20;99.90
18191;DHT22;47004;51.366;12.348;2023-04-06T04:14:15;2.20;99.90
18191;DHT22;47004;51.366;12.348;2023-04-06T04:16:17;2.20;99.90
18191;DHT22;47004;51.366;12.348;2023-04-06T04:18:20;2.10;99.90
18191;DHT22;47004;51.366;12.348;2023-04-06T04:20:22;2.10;99.90
18191;DHT22;47004;51.366;12.348;2023-04-06T04:22:25;2.10;99.90
18191;DHT22;47004;51.366;12.348;2023-04-06T04:24:28;2.10;99.90
18191;DHT22;47004;51.366;12.348;2023-04-06T04:26:30;2.10;99.90
18191;DHT22;47004;51.366;12.348;2023-04-06T04:28:32;2.00;99.90
18191;DHT22;47004;51.366;12.348;2023-04-06T04:30:34;2.00;99.90
18191;DHT22;47004;51.366;12.348;2023-04-06T04:32:36;2.00;99.90
18191;DHT22;47004;51.366;12.348;2023-04-06T04:34:38;2.00;99.90
18191;DHT22;47004;51.366;12.348;2023-04-06T04:36:41;1.90;99.90
18191;DHT22;47004;51.366;12.348;2023-04-06T04:38:45;1.70;99.90
18191;DHT22;47004;51.366;12.348;2023-04-06T04:40:47;1.90;99.90
18191;DHT22;47004;51.366;12.348;2023-04-06T04:42:49;1.90;99.90
18191;DHT22;47004;51.366;12.348;2023-04-06T04:44:51;1.90;99.90
18191;DHT22;47004;51.366;12.348;2023-04-06T04:46:54;1.90;99.90
18191;DHT22;47004;51.366;12.348;2023-04-06T04:48:56;1.90;99.90
18191;DHT22;47004;51.366;12.348;2023-04-06T04:50:58;1.90;99.90
18191;DHT22;47004;51.366;12.348;2023-04-06T04:53:00;1.80;99.90
18191;DHT22;47004;51.366;12.348;2023-04-06T04:55:04;1.80;99.90
18191;DHT22;47004;51.366;12.348;2023-04-06T04:57:06;1.80;99.90
18191;DHT22;47004;51.366;12.348;2023-04-06T04:59:08;1.80;99.90
18191;DHT22;47004;51.366;12.348;2023-04-06T05:01:10;1.80;99.90
18191;DHT22;47004;51.366;12.348;2023-04-06T05:03:17;1.80;99.90
18191;DHT22;47004;51.366;12.348;2023-04-06T05:05:20;1.70;99.90
18191;DHT22;47004;51.366;12.348;2023-04-06T05:07:22;1.70;99.90
18191;DHT22;47004;51.366;12.348;2023-04-06T05:09:24;1.70;99.90
18191;DHT22;47004;51.366;12.348;2023-04-06T05:11:27;1.70;99.90
18191;DHT22;47004;51.366;12.348;2023-04-06T05:13:30;1.70;99.90
18191;DHT22;47004;51.366;12.348;2023-04-06T05:15:32;1.70;99.90
18191;DHT22;47004;51.366;12.348;2023-04-06T05:17:35;1.70;99.90
18191;DHT22;47004;51.366;12.348;2023-04-06T05:19:37;1.80;99.90
18191;DHT22;47004;51.366;12.348;2023-04-06T05:21:39;1.70;99.90
18191;DHT22;47004;51.366;12.348;2023-04-06T05:23:41;1.70;99.90
18191;DHT22;47004;51.366;12.348;2023-04-06T05:25:43;1.80;99.90
18191;DHT22;47004;51.366;12.348;2023-04-06T05:27:47;1.80;99.90
18191;DHT22;47004;51.366;12.348;2023-04-06T05:29:49;1.80;99.90
18191;DHT22;47004;51.366;12.348;2023-04-06T05:31:51;1.80;99.90
18191;DHT22;47004;51.366;12.348;2023-04-06T05:33:53;1.80;99.90
18191;DHT22;47004;51.366;12.348;2023-04-06T05:35:55;1.80;99.90
18191;DHT22;47004;51.366;12.348;2023-04-06T05:37:57;1.80;99.90
18191;DHT22;47004;51.366;12.348;2023-04-06T05:39:59;1.80;99.90
18191;DHT22;47004;51.366;12.348;2023-04-06T05:42:03;1.80;99.90
18191;DHT22;47004;51.366;12.348;2023-04-06T05:44:07;1.80;99.90
18191;DHT22;47004;51.366;12.348;2023-04-06T05:46:09;1.90;99.90
18191;DHT22;47004;51.366;12.348;2023-04-06T05:48:11;1.90;99.90
18191;DHT22;47004;51.366;12.348;2023-04-06T05:50:14;1.90;99.90
18191;DHT22;47004;51.366;12.348;2023-04-06T05:52:16;1.90;99.90
18191;DHT22;47004;51.366;12.348;2023-04-06T05:54:18;1.90;99.90
18191;DHT22;47004;51.366;12.348;2023-04-06T05:56:21;1.90;99.90
18191;DHT22;47004;51.366;12.348;2023-04-06T05:58:24;1.90;99.90
18191;DHT22;47004;51.366;12.348;2023-04-06T06:00:28;2.00;99.90
18191;DHT22;47004;51.366;12.348;2023-04-06T06:02:30;2.10;99.90
18191;DHT22;47004;51.366;12.348;2023-04-06T06:04:32;2.10;99.90
18191;DHT22;47004;51.366;12.348;2023-04-06T06:06:34;2.10;99.90
18191;DHT22;47004;51.366;12.348;2023-04-06T06:08:37;2.20;99.90
18191;DHT22;47004;51.366;12.348;2023-04-06T06:10:39;3.30;99.90
18191;DHT22;47004;51.366;12.348;2023-04-06T06:12:41;2.30;99.90
18191;DHT22;47004;51.366;12.348;2023-04-06T06:14:43;2.30;99.90
18191;DHT22;47004;51.366;12.348;2023-04-06T06:16:49;2.40;99.90
18191;DHT22;47004;51.366;12.348;2023-04-06T06:18:51;2.40;99.90
18191;DHT22;47004;51.366;12.348;2023-04-06T06:20:53;2.40;99.90
18191;DHT22;47004;51.366;12.348;2023-04-06T06:22:55;2.50;99.90
18191;DHT22;47004;51.366;12.348;2023-04-06T06:24:57;2.50;99.90
18191;DHT22;47004;51.366;12.348;2023-04-06T06:26:59;2.60;99.90
18191;DHT22;47004;51.366;12.348;2023-04-06T06:29:01;2.60;99.90
18191;DHT22;47004;51.366;12.348;2023-04-06T06:31:04;2.60;99.90
18191;DHT22;47004;51.366;12.348;2023-04-06T06:33:07;2.70;99.90
18191;DHT22;47004;51.366;12.348;2023-04-06T06:35:09;2.80;99.90
18191;DHT22;47004;51.366;12.348;2023-04-06T06:37:11;2.90;99.90
18191;DHT22;47004;51.366;12.348;2023-04-06T06:39:13;2.90;99.90
18191;DHT22;47004;51.366;12.348;2023-04-06T06:41:15;2.90;99.90
18191;DHT22;47004;51.366;12.348;2023-04-06T06:43:17;3.00;99.90
18191;DHT22;47004;51.366;12.348;2023-04-06T06:45:19;3.00;99.90
18191;DHT22;47004;51.366;12.348;2023-04-06T06:47:21;3.00;99.90
18191;DHT22;47004;51.366;12.348;2023-04-06T06:49:25;3.10;99.90
18191;DHT22;47004;51.366;12.348;2023-04-06T06:51:27;3.10;99.90
18191;DHT22;47004;51.366;12.348;2023-04-06T06:53:29;3.20;99.90
18191;DHT22;47004;51.366;12.348;2023-04-06T06:55:31;3.30;99.90
18191;DHT22;47004;51.366;12.348;2023-04-06T06:57:33;3.30;99.90
18191;DHT22;47004;51.366;12.348;2023-04-06T06:59:35;3.30;99.90
18191;DHT22;47004;51.366;12.348;2023-04-06T07:01:37;3.40;99.90
18191;DHT22;47004;51.366;12.348;2023-04-06T07:03:39;3.40;99.90
18191;DHT22;47004;51.366;12.348;2023-04-06T07:05:46;3.50;99.90
18191;DHT22;47004;51.366;12.348;2023-04-06T07:07:53;3.50;99.90
18191;DHT22;47004;51.366;12.348;2023-04-06T07:09:55;3.60;99.90
18191;DHT22;47004;51.366;12.348;2023-04-06T07:11:57;3.60;99.90
18191;DHT22;47004;51.366;12.348;2023-04-06T07:13:59;3.70;99.90
18191;DHT22;47004;51.366;12.348;2023-04-06T07:16:01;3.70;99.90
18191;DHT22;47004;51.366;12.348;2023-04-06T07:18:03;3.80;99.90
18191;DHT22;47004;51.366;12.348;2023-04-06T07:20:09;3.80;99.90
18191;DHT22;47004;51.366;12.348;2023-04-06T07:22:13;3.90;99.90
18191;DHT22;47004;51.366;12.348;2023-04-06T07:24:15;4.00;99.90
18191;DHT22;47004;51.366;12.348;2023-04-06T07:26:17;4.00;99.90
18191;DHT22;47004;51.366;12.348;2023-04-06T07:28:19;4.10;99.90
18191;DHT22;47004;51.366;12.348;2023-04-06T07:30:21;4.10;99.90
18191;DHT22;47004;51.366;12.348;2023-04-06T07:32:25;4.20;99.90
18191;DHT22;47004;51.366;12.348;2023-04-06T07:34:27;4.30;99.90
18191;DHT22;47004;51.366;12.348;2023-04-06T07:36:29;4.30;99.90
18191;DHT22;47004;51.366;12.348;2023-04-06T07:38:33;4.40;99.90
18191;DHT22;47004;51.366;12.348;2023-04-06T07:40:35;4.50;99.90
18191;DHT22;47004;51.366;12.348;2023-04-06T07:42:37;4.60;99.90
18191;DHT22;47004;51.366;12.348;2023-04-06T07:44:39;4.70;99.90
18191;DHT22;47004;51.366;12.348;2023-04-06T07:46:41;4.70;99.90
18191;DHT22;47004;51.366;12.348;2023-04-06T07:48:43;4.80;99.90
18191;DHT22;47004;51.366;12.348;2023-04-06T07:50:45;4.30;99.90
18191;DHT22;47004;51.366;12.348;2023-04-06T07:52:47;4.80;99.90
18191;DHT22;47004;51.366;12.348;2023-04-06T07:54:51;4.90;99.90
18191;DHT22;47004;51.366;12.348;2023-04-06T07:56:53;4.90;99.90
18191;DHT22;47004;51.366;12.348;2023-04-06T07:58:55;5.00;99.90
18191;DHT22;47004;51.366;12.348;2023-04-06T08:00:58;5.00;99.90
18191;DHT22;47004;51.366;12.348;2023-04-06T08:03:00;5.10;99.90
18191;DHT22;47004;51.366;12.348;2023-04-06T08:05:02;5.10;99.90
18191;DHT22;47004;51.366;12.348;2023-04-06T08:07:04;5.00;99.90
18191;DHT22;47004;51.366;12.348;2023-04-06T08:09:07;5.20;99.90
18191;DHT22;47004;51.366;12.348;2023-04-06T08:11:10;5.20;99.90
18191;DHT22;47004;51.366;12.348;2023-04-06T08:13:12;5.30;99.90
18191;DHT22;47004;51.366;12.348;2023-04-06T08:15:15;5.30;99.90
18191;DHT22;47004;51.366;12.348;2023-04-06T08:17:18;5.40;99.90
18191;DHT22;47004;51.366;12.348;2023-04-06T08:19:20;5.40;99.90
18191;DHT22;47004;51.366;12.348;2023-04-06T08:21:23;5.50;99.90
18191;DHT22;47004;51.366;12.348;2023-04-06T08:23:25;5.50;99.90
18191;DHT22;47004;51.366;12.348;2023-04-06T08:25:27;5.50;99.90
18191;DHT22;47004;51.366;12.348;2023-04-06T08:27:30;5.60;99.90
18191;DHT22;47004;51.366;12.348;2023-04-06T08:29:32;5.70;99.90
18191;DHT22;47004;51.366;12.348;2023-04-06T08:31:34;5.70;99.90
18191;DHT22;47004;51.366;12.348;2023-04-06T08:33:36;5.70;99.90
18191;DHT22;47004;51.366;12.348;2023-04-06T08:35:39;5.80;99.90
18191;DHT22;47004;51.366;12.348;2023-04-06T08:37:41;5.80;99.90
18191;DHT22;47004;51.366;12.348;2023-04-06T08:39:43;5.80;99.90
18191;DHT22;47004;51.366;12.348;2023-04-06T08:41:45;5.90;99.90
18191;DHT22;47004;51.366;12.348;2023-04-06T08:43:51;5.90;99.90
18191;DHT22;47004;51.366;12.348;2023-04-06T08:45:56;6.00;99.90
18191;DHT22;47004;51.366;12.348;2023-04-06T08:47:59;6.00;99.90
18191;DHT22;47004;51.366;12.348;2023-04-06T08:50:04;6.10;99.90
18191;DHT22;47004;51.366;12.348;2023-04-06T08:52:06;6.20;99.90
18191;DHT22;47004;51.366;12.348;2023-04-06T08:54:09;6.20;99.90
18191;DHT22;47004;51.366;12.348;2023-04-06T08:56:12;6.20;99.90
18191;DHT22;47004;51.366;12.348;2023-04-06T08:58:15;6.30;99.90
18191;DHT22;47004;51.366;12.348;2023-04-06T09:00:19;6.40;99.90
18191;DHT22;47004;51.366;12.348;2023-04-06T09:02:21;6.40;99.90
18191;DHT22;47004;51.366;12.348;2023-04-06T09:04:23;6.40;99.90
18191;DHT22;47004;51.366;12.348;2023-04-06T09:06:27;6.50;99.90
18191;DHT22;47004;51.366;12.348;2023-04-06T09:08:29;6.50;99.90
18191;DHT22;47004;51.366;12.348;2023-04-06T09:10:32;6.60;99.90
18191;DHT22;47004;51.366;12.348;2023-04-06T09:12:34;6.70;99.90
18191;DHT22;47004;51.366;12.348;2023-04-06T09:14:37;6.80;99.90
18191;DHT22;47004;51.366;12.348;2023-04-06T09:16:42;6.80;99.90
18191;DHT22;47004;51.366;12.348;2023-04-06T09:18:44;6.80;99.90
18191;DHT22;47004;51.366;12.348;2023-04-06T09:20:57;6.90;99.90
18191;DHT22;47004;51.366;12.348;2023-04-06T09:22:59;7.00;97.60
18191;DHT22;47004;51.366;12.348;2023-04-06T09:25:01;7.10;99.90
18191;DHT22;47004;51.366;12.348;2023-04-06T09:27:03;7.20;96.50
18191;DHT22;47004;51.366;12.348;2023-04-06T09:29:05;7.20;84.70
18191;DHT22;47004;51.366;12.348;2023-04-06T09:31:07;7.20;94.70
18191;DHT22;47004;51.366;12.348;2023-04-06T09:33:11;7.30;93.40
18191;DHT22;47004;51.366;12.348;2023-04-06T09:35:14;7.40;89.70
18191;DHT22;47004;51.366;12.348;2023-04-06T09:37:18;7.50;85.00
18191;DHT22;47004;51.366;12.348;2023-04-06T09:39:21;7.50;69.10
18191;DHT22;47004;51.366;12.348;2023-04-06T09:41:25;7.60;76.20
18191;DHT22;47004;51.366;12.348;2023-04-06T09:43:27;7.60;72.90
18191;DHT22;47004;51.366;12.348;2023-04-06T09:45:30;7.70;77.20
18191;DHT22;47004;51.366;12.348;2023-04-06T09:47:32;7.70;81.10
18191;DHT22;47004;51.366;12.348;2023-04-06T09:49:39;7.80;89.40
18191;DHT22;47004;51.366;12.348;2023-04-06T09:51:44;7.90;65.70
18191;DHT22;47004;51.366;12.348;2023-04-06T09:53:52;8.00;62.60
18191;DHT22;47004;51.366;12.348;2023-04-06T09:55:57;8.10;63.60
18191;DHT22;47004;51.366;12.348;2023-04-06T09:58:04;8.10;61.90
18191;DHT22;47004;51.366;12.348;2023-04-06T10:00:08;8.40;58.20
18191;DHT22;47004;51.366;12.348;2023-04-06T10:02:18;8.50;53.80
18191;DHT22;47004;51.366;12.348;2023-04-06T10:04:31;8.50;52.80
18191;DHT22;47004;51.366;12.348;2023-04-06T10:06:35;8.70;48.30
18191;DHT22;47004;51.366;12.348;2023-04-06T10:08:39;8.80;50.20
18191;DHT22;47004;51.366;12.348;2023-04-06T10:10:42;8.90;52.60
18191;DHT22;47004;51.366;12.348;2023-04-06T10:12:44;9.00;51.40
18191;DHT22;47004;51.366;12.348;2023-04-06T10:14:47;9.20;49.30
18191;DHT22;47004;51.366;12.348;2023-04-06T10:16:50;9.30;51.40
18191;DHT22;47004;51.366;12.348;2023-04-06T10:18:56;9.40;48.90
18191;DHT22;47004;51.366;12.348;2023-04-06T10:21:03;9.50;47.30
18191;DHT22;47004;51.366;12.348;2023-04-06T10:23:09;9.50;49.20
18191;DHT22;47004;51.366;12.348;2023-04-06T10:25:16;9.60;48.90
18191;DHT22;47004;51.366;12.348;2023-04-06T10:27:27;9.70;47.80
18191;DHT22;47004;51.366;12.348;2023-04-06T10:29:42;9.70;48.10
18191;DHT22;47004;51.366;12.348;2023-04-06T10:31:48;9.80;51.00
18191;DHT22;47004;51.366;12.348;2023-04-06T10:33:54;9.90;47.50
18191;DHT22;47004;51.366;12.348;2023-04-06T10:35:56;10.00;46.40
18191;DHT22;47004;51.366;12.348;2023-04-06T10:38:01;10.10;44.70
18191;DHT22;47004;51.366;12.348;2023-04-06T10:40:06;10.10;43.70
18191;DHT22;47004;51.366;12.348;2023-04-06T10:42:23;10.20;45.80
18191;DHT22;47004;51.366;12.348;2023-04-06T10:44:26;10.20;43.50
18191;DHT22;47004;51.366;12.348;2023-04-06T10:46:30;10.30;43.10
18191;DHT22;47004;51.366;12.348;2023-04-06T10:48:39;10.40;44.20
18191;DHT22;47004;51.366;12.348;2023-04-06T10:50:42;10.40;45.70
18191;DHT22;47004;51.366;12.348;2023-04-06T10:52:45;10.50;43.10
18191;DHT22;47004;51.366;12.348;2023-04-06T10:54:48;10.60;42.90
18191;DHT22;47004;51.366;12.348;2023-04-06T10:56:51;10.70;42.90
18191;DHT22;47004;51.366;12.348;2023-04-06T10:58:54;10.70;42.80
18191;DHT22;47004;51.366;12.348;2023-04-06T11:00:57;10.90;44.40
18191;DHT22;47004;51.366;12.348;2023-04-06T11:03:00;11.00;44.20
18191;DHT22;47004;51.366;12.348;2023-04-06T11:05:02;11.20;43.20
18191;DHT22;47004;51.366;12.348;2023-04-06T11:07:04;11.30;42.20
18191;DHT22;47004;51.366;12.348;2023-04-06T11:09:06;11.30;41.40
18191;DHT22;47004;51.366;12.348;2023-04-06T11:11:11;11.40;42.70
18191;DHT22;47004;51.366;12.348;2023-04-06T11:13:17;11.50;42.20
18191;DHT22;47004;51.366;12.348;2023-04-06T11:15:19;11.50;40.10
18191;DHT22;47004;51.366;12.348;2023-04-06T11:17:26;11.60;39.50
18191;DHT22;47004;51.366;12.348;2023-04-06T11:19:28;11.70;40.90
18191;DHT22;47004;51.366;12.348;2023-04-06T11:21:34;11.80;40.90
18191;DHT22;47004;51.366;12.348;2023-04-06T11:23:37;11.80;38.90
18191;DHT22;47004;51.366;12.348;2023-04-06T11:25:39;11.80;39.40
18191;DHT22;47004;51.366;12.348;2023-04-06T11:27:51;11.90;41.60
18191;DHT22;47004;51.366;12.348;2023-04-06T11:29:55;12.10;39.20
18191;DHT22;47004;51.366;12.348;2023-04-06T11:31:59;12.10;38.40
18191;DHT22;47004;51.366;12.348;2023-04-06T11:34:01;12.20;37.40
18191;DHT22;47004;51.366;12.348;2023-04-06T11:36:03;12.40;38.20
18191;DHT22;47004;51.366;12.348;2023-04-06T11:38:06;12.50;37.80
18191;DHT22;47004;51.366;12.348;2023-04-06T11:40:09;12.60;38.60
18191;DHT22;47004;51.366;12.348;2023-04-06T11:42:11;12.80;37.30
18191;DHT22;47004;51.366;12.348;2023-04-06T11:44:13;13.00;40.60
18191;DHT22;47004;51.366;12.348;2023-04-06T11:46:18;13.10;38.70
18191;DHT22;47004;51.366;12.348;2023-04-06T11:48:21;13.40;39.30
18191;DHT22;47004;51.366;12.348;2023-04-06T11:50:25;13.50;38.60
18191;DHT22;47004;51.366;12.348;2023-04-06T11:52:27;13.80;38.00
18191;DHT22;47004;51.366;12.348;2023-04-06T11:54:32;14.00;37.40
18191;DHT22;47004;51.366;12.348;2023-04-06T11:56:34;14.10;35.70
18191;DHT22;47004;51.366;12.348;2023-04-06T11:58:36;14.20;34.20
18191;DHT22;47004;51.366;12.348;2023-04-06T12:00:38;14.60;37.30
18191;DHT22;47004;51.366;12.348;2023-04-06T12:02:47;15.00;36.60
18191;DHT22;47004;51.366;12.348;2023-04-06T12:04:49;15.40;34.30
18191;DHT22;47004;51.366;12.348;2023-04-06T12:06:51;15.50;33.40
18191;DHT22;47004;51.366;12.348;2023-04-06T12:08:53;15.70;34.30
18191;DHT22;47004;51.366;12.348;2023-04-06T12:10:55;15.90;32.90
18191;DHT22;47004;51.366;12.348;2023-04-06T12:12:58;16.20;33.50
18191;DHT22;47004;51.366;12.348;2023-04-06T12:15:00;16.30;31.50
18191;DHT22;47004;51.366;12.348;2023-04-06T12:17:02;16.50;30.90
18191;DHT22;47004;51.366;12.348;2023-04-06T12:19:05;16.70;30.40
18191;DHT22;47004;51.366;12.348;2023-04-06T12:21:07;16.80;29.80
18191;DHT22;47004;51.366;12.348;2023-04-06T12:23:09;17.00;30.30
18191;DHT22;47004;51.366;12.348;2023-04-06T12:25:11;17.10;29.50
18191;DHT22;47004;51.366;12.348;2023-04-06T12:27:13;17.20;29.40
18191;DHT22;47004;51.366;12.348;2023-04-06T12:29:16;17.50;30.30
18191;DHT22;47004;51.366;12.348;2023-04-06T12:31:19;17.70;29.30
18191;DHT22;47004;51.366;12.348;2023-04-06T12:33:22;18.00;28.70
18191;DHT22;47004;51.366;12.348;2023-04-06T12:35:25;18.30;28.50
18191;DHT22;47004;51.366;12.348;2023-04-06T12:37:27;18.70;28.90
18191;DHT22;47004;51.366;12.348;2023-04-06T12:39:29;19.10;27.60
18191;DHT22;47004;51.366;12.348;2023-04-06T12:41:31;19.50;27.60
18191;DHT22;47004;51.366;12.348;2023-04-06T12:43:33;19.90;26.70
18191;DHT22;47004;51.366;12.348;2023-04-06T12:45:35;20.20;26.10
18191;DHT22;47004;51.366;12.348;2023-04-06T12:47:37;20.50;25.60
18191;DHT22;47004;51.366;12.348;2023-04-06T12:49:39;20.80;25.20
18191;DHT22;47004;51.366;12.348;2023-04-06T12:51:43;20.90;24.10
18191;DHT22;47004;51.366;12.348;2023-04-06T12:53:45;21.20;25.50